createdAt,value
2023-04-01T00:02:35.394Z,86.9
2023-04-01T00:14:35.413Z,86.9
2023-04-01T00:26:36.340Z,87.3
2023-04-01T00:38:35.404Z,88.0
2023-04-01T00:50:35.408Z,87.6
2023-04-01T01:02:35.680Z,87.3
2023-04-01T01:14:35.676Z,86.8
2023-04-01T01:26:35.322Z,86.7
2023-04-01T01:38:35.424Z,86.9
2023-04-01T01:50:35.310Z,87.4
2023-04-01T02:02:35.430Z,87.9
2023-04-01T02:14:35.393Z,87.9
2023-04-01T02:26:35.309Z,87.6
2023-04-01T02:38:35.426Z,87.7
2023-04-01T02:50:35.321Z,87.9
2023-04-01T03:02:35.413Z,88.1
2023-04-01T03:14:35.442Z,87.7
2023-04-01T03:26:35.321Z,88.0
2023-04-01T03:38:35.353Z,88.0
2023-04-01T03:50:35.405Z,87.6
2023-04-01T04:02:35.543Z,87.4
2023-04-01T04:14:35.426Z,87.4
2023-04-01T04:26:35.418Z,87.2
2023-04-01T04:38:35.330Z,87.3
2023-04-01T04:50:35.431Z,87.1
2023-04-01T05:02:35.485Z,86.5
2023-04-01T05:14:35.389Z,86.5
2023-04-01T05:26:35.414Z,87.2
2023-04-01T05:38:35.470Z,88.0
2023-04-01T05:50:35.441Z,89.3
2023-04-01T06:02:35.446Z,90.8
2023-04-01T06:14:35.424Z,92.7
2023-04-01T06:26:35.316Z,93.4
2023-04-01T06:38:35.428Z,93.8
2023-04-01T06:50:35.396Z,93.8
2023-04-01T07:02:35.326Z,93.9
2023-04-01T07:14:35.311Z,93.7
2023-04-01T07:26:35.361Z,93.1
2023-04-01T07:38:35.460Z,93.2
2023-04-01T07:50:35.429Z,93.5
2023-04-01T08:02:35.387Z,93.1
2023-04-01T08:14:35.329Z,93.2
2023-04-01T08:26:35.372Z,93.2
2023-04-01T08:38:35.345Z,92.4
2023-04-01T08:50:35.438Z,92.6
2023-04-01T09:02:35.421Z,92.9
2023-04-01T09:14:35.426Z,93.8
2023-04-01T09:26:35.418Z,93.1
2023-04-01T09:38:35.321Z,90.7
2023-04-01T09:50:35.466Z,88.9
2023-04-01T10:02:35.401Z,88.9
2023-04-01T10:14:35.424Z,86.6
2023-04-01T10:26:35.594Z,85.7
2023-04-01T10:38:35.312Z,87.4
2023-04-01T10:50:35.436Z,86.9
2023-04-01T11:02:35.503Z,87.5
2023-04-01T11:14:35.346Z,88.4
2023-04-01T11:26:35.471Z,89.1
2023-04-01T11:38:36.423Z,89.1
2023-04-01T11:50:35.411Z,89.7
2023-04-01T12:02:35.467Z,89.6
2023-04-01T12:14:35.323Z,85.5
2023-04-01T12:26:35.385Z,88.3
2023-04-01T12:38:35.417Z,88.6
2023-04-01T12:50:35.318Z,89.8
2023-04-01T13:02:35.410Z,87.6
2023-04-01T13:14:35.304Z,84.3
2023-04-01T13:26:35.308Z,84.5
2023-04-01T13:38:35.332Z,86.8
2023-04-01T13:50:35.711Z,87.3
2023-04-01T14:02:35.333Z,85.3
2023-04-01T14:14:35.379Z,91.0
2023-04-01T14:26:35.318Z,91.1
2023-04-01T14:38:35.304Z,93.4
2023-04-01T14:50:35.342Z,91.7
2023-04-01T15:02:35.373Z,93.7
2023-04-01T15:14:35.336Z,93.5
2023-04-01T15:26:35.420Z,93.8
2023-04-01T15:38:35.457Z,94.6
2023-04-01T15:50:35.419Z,93.4
2023-04-01T16:02:35.427Z,92.1
2023-04-01T16:14:35.364Z,92.7
2023-04-01T16:26:35.382Z,92.6
2023-04-01T16:38:35.415Z,94.7
2023-04-01T16:50:35.461Z,94.5
2023-04-01T17:02:35.403Z,94.2
2023-04-01T17:14:35.320Z,94.6
2023-04-01T17:26:35.404Z,95.0
2023-04-01T17:38:35.438Z,96.7
2023-04-01T17:50:35.650Z,96.9
2023-04-01T18:02:35.532Z,97.0
2023-04-01T18:14:35.424Z,96.0
2023-04-01T18:26:35.386Z,95.9
2023-04-01T18:38:35.418Z,95.0
2023-04-01T18:50:35.731Z,94.0
2023-04-01T19:02:35.539Z,93.8
2023-04-01T19:14:35.385Z,94.2
2023-04-01T19:26:35.327Z,94.9
2023-04-01T19:38:35.308Z,95.0
2023-04-01T19:50:35.808Z,94.8
2023-04-01T20:02:35.514Z,94.0
2023-04-01T20:14:35.367Z,94.4
2023-04-01T20:26:35.432Z,94.6
2023-04-01T20:38:35.446Z,95.3
2023-04-01T20:50:35.315Z,95.9
2023-04-01T21:02:35.453Z,96.1
2023-04-01T21:14:35.334Z,95.2
2023-04-01T21:26:35.436Z,95.3
2023-04-01T21:38:35.306Z,96.1
2023-04-01T21:50:35.392Z,95.9
2023-04-01T22:02:35.333Z,95.5
2023-04-01T22:14:35.378Z,95.9
2023-04-01T22:26:35.429Z,95.7
2023-04-01T22:38:35.392Z,96.1
2023-04-01T22:50:35.677Z,96.2
2023-04-01T23:02:35.360Z,96.4
2023-04-01T23:14:35.420Z,96.4
2023-04-01T23:26:35.425Z,96.5
2023-04-01T23:38:35.311Z,96.8
2023-04-01T23:50:35.674Z,96.9
